Time;durP1;ratioP1;P1;durP2;ratioP2;P2;SDS_P1;SDS_P2;PMS_P1;PMS_P2;Temp;Humidity;BMP_temperature;BMP_pressure;BME280_temperature;BME280_humidity;BME280_pressure;Samples;Min_cycle;Max_cycle;Signal;HPM_P1;HPM_P2
2022/12/15 00:38:43;;;;;;;6.25;3.67;;;26.50;93.00;;;;;;5085306;28;20281;-53
2022/12/15 00:41:17;;;;;;;6.43;4.32;;;26.50;93.00;;;;;;5085424;28;20058;-52
2022/12/15 00:43:44;;;;;;;9.02;6.47;;;26.50;92.90;;;;;;5085591;28;20044;-56
2022/12/15 00:48:57;;;;;;;6.95;5.88;;;26.50;92.80;;;;;;5086404;28;20124;-57
2022/12/15 01:21:48;;;;;;;5.40;4.03;;;26.40;92.80;;;;;;4984204;28;20042;-52
2022/12/15 01:24:15;;;;;;;4.72;3.55;;;26.40;92.80;;;;;;4983289;28;20027;-54
2022/12/15 01:26:42;;;;;;;5.88;3.78;;;26.40;92.80;;;;;;4982784;28;20023;-54
2022/12/15 01:29:08;;;;;;;5.25;3.92;;;26.40;92.80;;;;;;4983758;28;20022;-53
2022/12/15 01:31:35;;;;;;;6.65;3.70;;;26.40;92.80;;;;;;4980780;28;20033;-54
2022/12/15 01:34:02;;;;;;;6.65;3.95;;;26.40;92.80;;;;;;4983195;28;20031;-56
2022/12/15 01:36:28;;;;;;;4.35;3.80;;;26.40;92.80;;;;;;4978056;28;20018;-53
2022/12/15 01:38:55;;;;;;;8.88;3.80;;;26.40;92.80;;;;;;4982646;28;20026;-53
2022/12/15 01:41:22;;;;;;;6.65;3.80;;;26.40;92.80;;;;;;4983297;28;20019;-53
2022/12/15 01:43:48;;;;;;;4.40;3.60;;;26.40;92.90;;;;;;4983607;28;20050;-54
2022/12/15 01:46:18;;;;;;;6.18;3.50;;;26.40;92.90;;;;;;4980164;28;20051;-52
2022/12/15 01:48:51;;;;;;;5.70;3.60;;;26.40;92.90;;;;;;4974344;28;20054;-54
2022/12/15 01:51:24;;;;;;;6.43;3.50;;;26.40;92.90;;;;;;4980159;28;20082;-53
2022/12/15 01:54:14;;;;;;;7.15;3.40;;;26.30;92.80;;;;;;4981562;28;20262;-48
2022/12/15 01:56:46;;;;;;;6.80;3.30;;;26.30;92.80;;;;;;4981780;28;20043;-55
2022/12/15 01:59:26;;;;;;;6.63;3.58;;;26.30;92.80;;;;;;4980829;28;20026;-55
2022/12/15 02:01:53;;;;;;;5.05;3.35;;;26.30;92.80;;;;;;4973661;28;20031;-53
2022/12/15 02:04:23;;;;;;;7.00;3.65;;;26.30;92.70;;;;;;4973198;28;20310;-51
2022/12/15 02:06:51;;;;;;;7.60;3.53;;;26.30;92.70;;;;;;4978442;28;20085;-51
2022/12/15 02:09:21;;;;;;;4.45;3.60;;;26.30;92.70;;;;;;4979617;28;20023;-56
2022/12/15 02:12:04;;;;;;;5.07;3.55;;;26.30;92.70;;;;;;4979169;28;20269;-51
2022/12/15 02:15:03;;;;;;;5.93;3.00;;;26.30;92.60;;;;;;4964209;29;20030;-53
2022/12/15 02:17:41;;;;;;;5.43;3.53;;;26.30;92.60;;;;;;4964765;28;20070;-53
2022/12/15 02:20:25;;;;;;;4.95;3.30;;;26.30;92.50;;;;;;4972030;28;20268;-51
2022/12/15 02:23:08;;;;;;;6.82;3.28;;;26.30;92.50;;;;;;4963481;28;20027;-51
2022/12/15 02:26:11;;;;;;;5.90;3.80;;;26.30;92.50;;;;;;4963460;29;20346;-53
2022/12/15 02:29:31;;;;;;;5.95;4.32;;;26.30;92.50;;;;;;4963662;28;20047;-51
2022/12/15 02:32:01;;;;;;;7.40;4.38;;;26.30;92.50;;;;;;4942341;29;20051;-52
2022/12/15 02:34:36;;;;;;;9.82;4.45;;;26.30;92.50;;;;;;4942460;29;20027;-51
2022/12/15 02:37:32;;;;;;;5.43;4.43;;;26.20;92.50;;;;;;4956278;29;20043;-52
2022/12/15 02:39:59;;;;;;;4.97;3.53;;;26.30;92.50;;;;;;4963676;29;20049;-53
2022/12/15 02:42:27;;;;;;;8.75;3.70;;;26.20;92.40;;;;;;4963165;28;20035;-51
2022/12/15 02:45:19;;;;;;;6.07;3.30;;;26.20;92.40;;;;;;4963730;29;20038;-55
2022/12/15 02:48:04;;;;;;;4.93;3.00;;;26.20;92.40;;;;;;4965394;28;20337;-62
2022/12/15 02:51:10;;;;;;;6.55;3.40;;;26.20;92.40;;;;;;4972920;28;20035;-58
2022/12/15 02:54:11;;;;;;;6.68;3.33;;;26.20;92.30;;;;;;4957629;28;20081;-53
2022/12/15 02:56:55;;;;;;;5.68;3.33;;;26.20;92.40;;;;;;4972080;28;20027;-52
2022/12/15 02:59:46;;;;;;;4.93;3.13;;;26.20;92.40;;;;;;4970199;28;20034;-53
2022/12/15 03:02:14;;;;;;;4.55;2.72;;;26.20;92.40;;;;;;4966783;28;20315;-52
2022/12/15 03:04:42;;;;;;;4.78;3.03;;;26.20;92.40;;;;;;4963214;29;20027;-53
2022/12/15 03:07:09;;;;;;;7.45;2.80;;;26.20;92.40;;;;;;4963008;29;20036;-52
2022/12/15 03:09:36;;;;;;;4.45;2.75;;;26.20;92.30;;;;;;4963160;29;20087;-53
2022/12/15 03:12:03;;;;;;;4.55;2.75;;;26.10;92.20;;;;;;4962683;28;20043;-51
2022/12/15 03:14:29;;;;;;;6.63;2.65;;;26.20;92.30;;;;;;4963245;29;20028;-50
2022/12/15 03:16:56;;;;;;;9.10;2.90;;;26.10;92.20;;;;;;4968302;28;20057;-57
2022/12/15 03:19:23;;;;;;;8.32;2.97;;;26.20;92.20;;;;;;4968151;28;20023;-55
2022/12/15 03:21:49;;;;;;;3.85;2.70;;;26.10;92.30;;;;;;4969320;28;20027;-53
2022/12/15 03:24:16;;;;;;;4.28;2.42;;;26.10;92.30;;;;;;4980518;28;20051;-53
2022/12/15 03:26:43;;;;;;;4.22;2.80;;;26.10;92.30;;;;;;4981680;28;20350;-55
2022/12/15 03:29:09;;;;;;;6.80;2.90;;;26.20;92.30;;;;;;4982490;28;20043;-52
2022/12/15 03:31:36;;;;;;;5.35;2.63;;;26.10;92.20;;;;;;4981901;28;20228;-52
2022/12/15 03:34:02;;;;;;;5.53;2.47;;;26.10;92.20;;;;;;4981984;28;20025;-58
2022/12/15 03:36:29;;;;;;;4.95;2.47;;;26.10;92.10;;;;;;4995780;28;20120;-54
2022/12/15 03:38:55;;;;;;;5.07;2.50;;;26.10;92.10;;;;;;4966222;28;20027;-55
2022/12/15 03:41:22;;;;;;;5.63;2.20;;;26.10;92.10;;;;;;4962688;28;20027;-54
2022/12/15 03:43:48;;;;;;;5.68;2.55;;;26.10;92.00;;;;;;4977459;28;20203;-53
2022/12/15 03:46:15;;;;;;;4.35;2.50;;;26.10;92.00;;;;;;4972142;28;20080;-62
2022/12/15 03:48:41;;;;;;;4.00;2.20;;;26.10;92.00;;;;;;4963773;28;20040;-49
2022/12/15 03:51:08;;;;;;;3.60;1.95;;;26.10;91.90;;;;;;4962381;28;20043;-52
2022/12/15 03:53:35;;;;;;;1.92;1.73;;;26.10;91.90;;;;;;4961758;29;20211;-52
2022/12/15 03:56:01;;;;;;;3.97;2.28;;;26.10;91.80;;;;;;4962238;29;20027;-52
2022/12/15 03:58:29;;;;;;;3.78;2.10;;;26.10;91.80;;;;;;4964749;28;20304;-53
2022/12/15 04:00:55;;;;;;;1.92;1.70;;;26.10;91.70;;;;;;4971233;28;20065;-56
2022/12/15 04:03:23;;;;;;;3.92;1.70;;;26.10;91.70;;;;;;4962564;28;20050;-53
2022/12/15 04:05:50;;;;;;;2.80;2.10;;;26.10;91.60;;;;;;4963841;28;20027;-55
2022/12/15 04:08:16;;;;;;;3.63;1.75;;;26.10;91.60;;;;;;4972169;28;20035;-55
2022/12/15 04:10:43;;;;;;;4.85;1.88;;;26.10;91.50;;;;;;4971015;28;20049;-58
2022/12/15 04:13:10;;;;;;;3.90;2.20;;;26.10;91.50;;;;;;4970281;28;20052;-55
2022/12/15 04:15:39;;;;;;;3.47;1.90;;;26.10;91.50;;;;;;4977703;28;20023;-52
2022/12/15 04:18:11;;;;;;;2.05;1.60;;;26.10;91.50;;;;;;4983358;28;20068;-53
2022/12/15 04:20:39;;;;;;;3.25;1.98;;;26.10;91.50;;;;;;4984693;28;20126;-53
2022/12/15 04:23:09;;;;;;;5.18;2.00;;;26.10;91.50;;;;;;4985097;28;20023;-53
2022/12/15 05:32:20;;;;;;;2.38;1.67;;;26.00;91.30;;;;;;4964257;29;20038;-52
2022/12/15 05:34:48;;;;;;;3.65;1.65;;;26.00;91.30;;;;;;5026624;28;20031;-54
2022/12/15 05:37:14;;;;;;;4.63;1.85;;;26.00;91.30;;;;;;4983451;28;20271;-54
2022/12/15 05:39:41;;;;;;;2.63;1.60;;;26.00;91.30;;;;;;4983914;28;20082;-52
2022/12/15 05:42:07;;;;;;;3.08;1.63;;;26.00;91.30;;;;;;4983416;28;20094;-52
2022/12/15 05:44:34;;;;;;;2.55;1.60;;;25.90;91.30;;;;;;4997259;28;20053;-59
2022/12/15 05:47:01;;;;;;;2.95;1.58;;;25.90;91.40;;;;;;5031434;28;20264;-52
2022/12/15 05:49:27;;;;;;;4.78;1.95;;;25.90;91.40;;;;;;4990654;28;20281;-54
2022/12/15 05:51:54;;;;;;;3.33;1.70;;;25.90;91.40;;;;;;4973531;28;20058;-53
2022/12/15 05:54:20;;;;;;;4.20;1.70;;;25.90;91.70;;;;;;4967083;28;20034;-54
2022/12/15 05:56:47;;;;;;;5.03;2.00;;;25.90;91.50;;;;;;4964009;28;20019;-52
2022/12/15 05:59:14;;;;;;;5.68;1.83;;;25.90;91.50;;;;;;4964077;28;20015;-51
2022/12/15 06:01:41;;;;;;;3.63;1.85;;;25.90;91.50;;;;;;4963803;29;20323;-52
2022/12/15 06:04:11;;;;;;;3.67;1.52;;;25.90;91.60;;;;;;4964179;28;20023;-54
2022/12/15 06:06:38;;;;;;;3.03;1.58;;;25.90;91.60;;;;;;4963682;28;20058;-52
2022/12/15 06:09:05;;;;;;;5.22;2.05;;;25.90;91.60;;;;;;4964111;28;20345;-52
2022/12/15 06:11:31;;;;;;;2.95;1.70;;;25.90;91.70;;;;;;4963650;28;20034;-51
2022/12/15 06:13:58;;;;;;;4.25;1.50;;;25.90;91.60;;;;;;4963927;28;20034;-52
2022/12/15 06:16:29;;;;;;;3.63;1.67;;;25.90;91.70;;;;;;4966238;28;20054;-52
2022/12/15 06:18:59;;;;;;;4.90;1.70;;;25.90;91.70;;;;;;4971485;28;20019;-51
2022/12/15 06:21:29;;;;;;;3.80;1.60;;;25.90;91.70;;;;;;4963398;28;20110;-52
2022/12/15 06:23:56;;;;;;;4.30;1.70;;;25.90;91.70;;;;;;4963837;28;20069;-52
2022/12/15 06:26:26;;;;;;;2.58;1.65;;;25.90;91.70;;;;;;4963483;28;20039;-52
2022/12/15 06:28:55;;;;;;;4.68;1.80;;;25.90;91.60;;;;;;4963533;29;20039;-52
2022/12/15 06:31:22;;;;;;;4.40;1.88;;;25.90;91.70;;;;;;4963831;28;20042;-58
2022/12/15 06:33:49;;;;;;;3.85;1.70;;;25.90;91.70;;;;;;4974334;28;20184;-52
2022/12/15 06:36:16;;;;;;;7.00;1.77;;;25.90;91.60;;;;;;4962487;28;20058;-52
2022/12/15 06:38:43;;;;;;;5.85;1.92;;;25.90;91.60;;;;;;4963467;28;20055;-52
2022/12/15 06:41:12;;;;;;;4.70;1.70;;;25.90;91.60;;;;;;4963391;28;20039;-53
2022/12/15 06:43:39;;;;;;;5.90;1.92;;;25.90;91.60;;;;;;4966316;28;20019;-52
2022/12/15 06:46:06;;;;;;;4.15;1.80;;;25.90;91.60;;;;;;4974082;28;20085;-53
2022/12/15 06:48:33;;;;;;;5.15;1.52;;;25.90;91.60;;;;;;4970653;28;20031;-54
2022/12/15 06:51:04;;;;;;;4.78;1.83;;;25.90;91.60;;;;;;4962829;28;20149;-52
2022/12/15 06:53:34;;;;;;;4.03;1.50;;;25.90;91.60;;;;;;4963240;28;20303;-53
2022/12/15 06:56:03;;;;;;;8.45;1.80;;;25.90;91.60;;;;;;4963030;28;20098;-53
2022/12/15 06:58:29;;;;;;;3.17;1.40;;;25.90;91.60;;;;;;4963169;28;20390;-53
2022/12/15 07:00:56;;;;;;;4.30;1.52;;;25.90;91.60;;;;;;4963200;29;20039;-52
2022/12/15 07:03:23;;;;;;;3.17;1.58;;;25.90;91.60;;;;;;4963030;28;20031;-49
2022/12/15 07:06:10;;;;;;;2.33;1.50;;;25.90;91.60;;;;;;4962874;29;20106;-53
2022/12/15 07:08:37;;;;;;;4.25;1.77;;;25.90;91.60;;;;;;4963145;29;20039;-53
2022/12/15 07:11:05;;;;;;;3.38;1.40;;;25.90;91.60;;;;;;4962718;28;20046;-53
2022/12/15 07:13:32;;;;;;;3.97;1.33;;;25.90;91.80;;;;;;4962996;29;20039;-54
2022/12/15 07:15:59;;;;;;;3.90;1.70;;;25.90;91.60;;;;;;4962792;28;20061;-52
2022/12/15 07:18:26;;;;;;;4.18;1.52;;;25.90;91.60;;;;;;4962818;29;20355;-58
2022/12/15 07:20:52;;;;;;;5.35;1.60;;;25.90;91.60;;;;;;4962717;28;20039;-54
2022/12/15 07:23:19;;;;;;;6.45;1.52;;;25.90;91.60;;;;;;4962869;29;20042;-52
2022/12/15 07:25:46;;;;;;;4.03;1.70;;;25.90;91.70;;;;;;4962620;29;20031;-52
2022/12/15 07:28:12;;;;;;;4.03;1.60;;;25.90;91.70;;;;;;4962692;29;20042;-52
2022/12/15 07:30:39;;;;;;;4.60;1.98;;;25.90;91.70;;;;;;4962968;28;20039;-50
2022/12/15 07:33:05;;;;;;;3.90;1.65;;;25.90;91.70;;;;;;4962532;29;20031;-55
2022/12/15 07:35:32;;;;;;;4.70;1.63;;;25.90;91.80;;;;;;4962792;29;20035;-53
2022/12/15 07:37:59;;;;;;;4.40;1.60;;;25.90;91.80;;;;;;4962585;29;20319;-51
2022/12/15 07:40:25;;;;;;;4.43;1.70;;;25.90;91.80;;;;;;4962524;28;20034;-52
2022/12/15 07:42:52;;;;;;;4.05;1.48;;;25.90;91.70;;;;;;4962649;28;20062;-54
2022/12/15 07:45:19;;;;;;;1.73;1.52;;;25.90;91.70;;;;;;4962612;28;20035;-53
2022/12/15 07:47:49;;;;;;;4.32;1.40;;;25.90;91.70;;;;;;4963944;28;20043;-54
2022/12/15 07:50:19;;;;;;;5.25;1.50;;;25.90;91.70;;;;;;4965656;28;20046;-53
2022/12/15 07:52:46;;;;;;;4.38;1.25;;;25.90;91.70;;;;;;4965751;28;20031;-57
2022/12/15 07:55:13;;;;;;;2.67;1.30;;;25.90;91.60;;;;;;4965579;29;20024;-55
2022/12/15 07:57:39;;;;;;;2.22;1.15;;;25.80;91.60;;;;;;4965687;28;20015;-55
2022/12/15 08:00:09;;;;;;;3.10;1.25;;;25.90;91.60;;;;;;4965716;28;20031;-54
2022/12/15 08:02:36;;;;;;;3.22;1.50;;;25.90;91.60;;;;;;4967893;28;20022;-54
2022/12/15 08:05:02;;;;;;;2.47;1.30;;;25.90;91.60;;;;;;4976366;28;20042;-53
2022/12/15 08:07:29;;;;;;;2.28;1.23;;;25.90;91.50;;;;;;4974008;28;20042;-51
2022/12/15 08:09:55;;;;;;;1.98;1.20;;;25.90;91.50;;;;;;4965742;28;20069;-57
2022/12/15 08:12:22;;;;;;;3.92;1.25;;;25.90;91.50;;;;;;4965609;28;20332;-53
2022/12/15 08:14:49;;;;;;;3.20;1.08;;;25.90;91.60;;;;;;4966001;28;20073;-52
2022/12/15 08:17:16;;;;;;;4.68;1.30;;;25.90;91.60;;;;;;4965255;28;20037;-58
2022/12/15 08:19:42;;;;;;;2.95;1.15;;;25.90;91.50;;;;;;4965778;29;20020;-52
2022/12/15 08:22:10;;;;;;;3.63;1.40;;;25.90;91.60;;;;;;4965402;29;20024;-53
2022/12/15 08:24:37;;;;;;;4.30;1.33;;;25.90;91.60;;;;;;4965516;29;20023;-57
2022/12/15 08:27:03;;;;;;;2.17;1.05;;;25.90;91.60;;;;;;4965220;29;20033;-53
2022/12/15 08:29:30;;;;;;;5.05;1.25;;;25.90;91.50;;;;;;4965221;29;20094;-50
2022/12/15 08:31:57;;;;;;;2.40;1.15;;;25.80;91.60;;;;;;4965196;29;20039;-56
2022/12/15 08:34:23;;;;;;;2.55;1.23;;;25.90;91.60;;;;;;4965504;29;20061;-59
2022/12/15 08:36:50;;;;;;;2.53;1.10;;;25.90;91.60;;;;;;4965310;28;20031;-53
2022/12/15 08:39:17;;;;;;;1.38;1.10;;;25.90;91.50;;;;;;4965258;29;20099;-54
2022/12/15 08:41:43;;;;;;;2.03;1.30;;;25.90;91.50;;;;;;4965085;28;20034;-54
2022/12/15 08:44:10;;;;;;;4.05;1.23;;;25.90;91.50;;;;;;4965259;28;20027;-51
2022/12/15 08:46:37;;;;;;;5.25;1.13;;;25.90;91.50;;;;;;4964734;28;20257;-52
2022/12/15 08:49:04;;;;;;;5.53;1.20;;;25.80;91.40;;;;;;4965054;28;20028;-53
2022/12/15 08:51:31;;;;;;;2.42;0.90;;;25.90;91.40;;;;;;4964758;28;20354;-52
2022/12/15 08:53:59;;;;;;;4.75;1.23;;;25.90;91.40;;;;;;4964886;29;20065;-52
2022/12/15 08:56:27;;;;;;;3.13;1.15;;;25.90;91.40;;;;;;4964948;28;20032;-52
2022/12/15 08:59:00;;;;;;;3.78;1.30;;;25.80;91.30;;;;;;4964221;28;20019;-51
2022/12/15 09:01:29;;;;;;;5.38;1.20;;;25.90;91.40;;;;;;4964542;29;20171;-54
2022/12/15 09:03:57;;;;;;;3.10;1.13;;;25.90;91.30;;;;;;4964574;28;20076;-51
2022/12/15 09:06:26;;;;;;;3.22;1.10;;;25.90;91.30;;;;;;4974941;28;20035;-51
2022/12/15 09:08:58;;;;;;;3.35;1.17;;;25.90;91.40;;;;;;4964739;28;20250;-52
2022/12/15 09:11:26;;;;;;;2.58;1.15;;;25.90;91.40;;;;;;4972927;28;20035;-52
2022/12/15 09:13:53;;;;;;;5.65;1.40;;;25.90;91.40;;;;;;4967211;28;20050;-56
2022/12/15 09:16:20;;;;;;;2.10;1.10;;;25.90;91.40;;;;;;4964377;29;20189;-52
2022/12/15 09:18:52;;;;;;;3.83;1.35;;;25.90;91.40;;;;;;4964718;28;20050;-53
2022/12/15 09:21:21;;;;;;;1.30;1.20;;;25.90;91.50;;;;;;4964311;28;20096;-52
2022/12/15 09:23:50;;;;;;;1.48;1.10;;;25.90;91.50;;;;;;4964591;29;20031;-53
2022/12/15 09:26:18;;;;;;;7.82;1.40;;;25.90;91.50;;;;;;4964510;28;20085;-57
2022/12/15 09:28:45;;;;;;;2.47;1.25;;;25.90;91.50;;;;;;4964343;28;20023;-53
2022/12/15 09:31:19;;;;;;;3.85;1.20;;;25.90;91.50;;;;;;4968649;28;20340;-49
2022/12/15 09:33:47;;;;;;;3.00;1.10;;;25.90;91.50;;;;;;4969862;28;20050;-51
2022/12/15 09:36:13;;;;;;;3.38;1.20;;;25.90;91.60;;;;;;4966535;28;20037;-54
2022/12/15 09:38:41;;;;;;;2.42;1.10;;;25.90;91.60;;;;;;4975290;28;20019;-53
2022/12/15 09:41:19;;;;;;;5.10;1.10;;;25.90;91.70;;;;;;4971509;28;20049;-53
2022/12/15 09:43:59;;;;;;;4.07;1.23;;;25.80;91.70;;;;;;4964292;29;20375;-52
2022/12/15 09:46:56;;;;;;;4.63;1.40;;;25.80;91.70;;;;;;4963758;28;20071;-53
2022/12/15 09:49:44;;;;;;;5.13;1.30;;;25.90;91.90;;;;;;4970827;28;20031;-52
2022/12/15 09:52:27;;;;;;;3.85;1.30;;;25.80;91.90;;;;;;4974156;28;20031;-52
2022/12/15 09:54:56;;;;;;;5.13;1.40;;;25.80;92.00;;;;;;4968063;28;20107;-52
2022/12/15 09:57:41;;;;;;;2.88;1.10;;;25.80;92.00;;;;;;4963795;28;20059;-52
2022/12/15 10:00:23;;;;;;;4.18;1.10;;;25.80;92.00;;;;;;4963867;28;20102;-52
2022/12/15 10:03:28;;;;;;;2.50;1.30;;;25.80;92.00;;;;;;4964074;28;20035;-52
2022/12/15 10:06:04;;;;;;;1.80;1.30;;;25.80;92.00;;;;;;4970716;28;20405;-53
2022/12/15 10:08:52;;;;;;;3.35;1.33;;;25.80;92.00;;;;;;4972186;28;20094;-54
2022/12/15 10:11:37;;;;;;;6.82;1.48;;;25.80;92.10;;;;;;4963533;28;20390;-54
2022/12/15 10:14:06;;;;;;;2.47;1.20;;;25.80;92.10;;;;;;4963815;29;20031;-53
2022/12/15 10:16:54;;;;;;;2.42;1.45;;;25.70;92.10;;;;;;4963619;29;20035;-53
2022/12/15 10:19:33;;;;;;;4.28;1.40;;;25.70;92.10;;;;;;4963743;29;20033;-52
2022/12/15 10:22:00;;;;;;;3.67;1.52;;;25.80;92.20;;;;;;4963528;29;20381;-56
2022/12/15 10:24:30;;;;;;;3.63;1.15;;;25.70;92.10;;;;;;4963715;29;20027;-53
2022/12/15 10:27:16;;;;;;;3.33;1.45;;;25.80;92.40;;;;;;4978501;28;20328;-52
2022/12/15 10:29:54;;;;;;;3.15;1.55;;;25.70;92.20;;;;;;4963691;28;20037;-51
2022/12/15 10:32:32;;;;;;;8.05;1.35;;;25.80;92.20;;;;;;4963380;28;20027;-53
2022/12/15 10:34:59;;;;;;;6.93;1.70;;;25.80;92.10;;;;;;4963684;29;20039;-54
2022/12/15 10:37:26;;;;;;;4.35;1.50;;;25.80;92.40;;;;;;4967560;28;20022;-55
2022/12/15 10:39:52;;;;;;;5.35;1.52;;;25.80;92.10;;;;;;4997154;28;20031;-51
2022/12/15 10:42:24;;;;;;;5.40;1.50;;;25.70;92.10;;;;;;5084063;28;20051;-52
2022/12/15 10:44:56;;;;;;;6.03;1.45;;;25.80;92.20;;;;;;5084651;28;20044;-51
2022/12/15 10:47:26;;;;;;;6.07;1.58;;;25.80;92.20;;;;;;5084247;28;20059;-52
2022/12/15 10:49:55;;;;;;;3.08;1.40;;;25.80;92.20;;;;;;5084292;28;20024;-52
2022/12/15 10:52:37;;;;;;;3.30;1.60;;;25.80;92.20;;;;;;5039288;28;20035;-52
2022/12/15 10:55:24;;;;;;;;;;;25.80;92.10;;;;;;5015073;28;20327;-51
2022/12/15 10:57:59;;;;;;;3.47;1.45;;;25.80;92.10;;;;;;5083863;28;20209;-52
2022/12/15 11:00:31;;;;;;;4.57;1.65;;;25.70;92.10;;;;;;5083878;28;20036;-53
2022/12/15 11:02:58;;;;;;;4.20;1.67;;;25.70;92.10;;;;;;5084167;28;20029;-52
2022/12/15 11:05:25;;;;;;;4.05;1.40;;;25.70;92.10;;;;;;5083905;28;20047;-58
2022/12/15 11:08:12;;;;;;;3.92;1.50;;;25.70;92.00;;;;;;5084198;28;20039;-53
2022/12/15 11:13:41;;;;;;;4.00;1.88;;;25.80;92.00;;;;;;5026374;28;20023;-56
2022/12/15 11:16:25;;;;;;;5.10;2.13;;;25.70;92.00;;;;;;5083695;28;20033;-53
2022/12/15 11:19:38;;;;;;;5.10;1.90;;;25.80;92.00;;;;;;5084199;28;20024;-53
2022/12/15 11:22:15;;;;;;;3.78;2.25;;;25.80;92.00;;;;;;5060993;28;20202;-55
2022/12/15 11:24:53;;;;;;;3.45;2.28;;;25.80;92.00;;;;;;5042157;28;20197;-53
2022/12/15 11:27:29;;;;;;;4.30;2.60;;;25.80;92.00;;;;;;5087712;28;20388;-53
2022/12/15 11:30:17;;;;;;;8.20;3.45;;;25.80;92.00;;;;;;5069560;28;20260;-57
2022/12/15 11:32:54;;;;;;;5.28;3.15;;;25.80;92.00;;;;;;5027617;28;20026;-54
2022/12/15 11:35:46;;;;;;;6.55;3.50;;;25.80;92.10;;;;;;4985311;28;20030;-52
2022/12/15 11:38:36;;;;;;;5.38;3.50;;;25.80;92.10;;;;;;4985222;28;20025;-52
2022/12/15 11:41:16;;;;;;;4.72;2.60;;;25.80;92.10;;;;;;4983734;28;20034;-55
2022/12/15 11:44:02;;;;;;;7.65;3.20;;;25.80;92.10;;;;;;4964838;28;20331;-54
2022/12/15 11:46:42;;;;;;;7.82;3.08;;;25.80;92.10;;;;;;4965699;28;20051;-53
2022/12/15 11:49:27;;;;;;;5.28;3.10;;;25.80;92.10;;;;;;4965992;28;20042;-51
2022/12/15 11:52:09;;;;;;;6.38;2.63;;;25.90;92.10;;;;;;4994705;28;20027;-54
2022/12/15 11:55:10;;;;;;;4.60;2.83;;;25.90;92.10;;;;;;5038853;28;20031;-53
2022/12/15 11:58:14;;;;;;;3.92;2.47;;;25.90;92.10;;;;;;5087148;28;20027;-52
2022/12/15 12:01:15;;;;;;;5.55;2.65;;;25.90;92.10;;;;;;5087287;28;20032;-54
2022/12/15 12:03:57;;;;;;;6.22;3.00;;;25.90;92.20;;;;;;5024251;28;20038;-54
2022/12/15 12:06:57;;;;;;;5.95;2.53;;;25.90;92.10;;;;;;5087173;28;20028;-56
2022/12/15 12:09:51;;;;;;;12.80;3.45;;;26.00;92.10;;;;;;5084506;28;20300;-58
2022/12/15 12:12:37;;;;;;;4.88;3.38;;;26.00;92.10;;;;;;5040534;28;20063;-52
2022/12/15 12:15:12;;;;;;;7.68;3.97;;;26.00;92.20;;;;;;5086889;28;20029;-52
2022/12/15 12:17:45;;;;;;;4.30;3.20;;;26.00;92.20;;;;;;5086824;28;20017;-55
2022/12/15 12:20:14;;;;;;;3.70;2.70;;;26.00;92.10;;;;;;5086829;28;20035;-54
2022/12/15 12:23:01;;;;;;;3.13;2.83;;;26.00;92.10;;;;;;5041457;28;20375;-52
2022/12/15 12:25:29;;;;;;;4.93;2.90;;;26.10;92.10;;;;;;5083895;28;20036;-55
2022/12/15 12:28:02;;;;;;;7.72;3.20;;;26.10;92.20;;;;;;5086702;28;20032;-53
2022/12/15 12:30:38;;;;;;;5.53;2.80;;;26.10;92.10;;;;;;5086603;28;20032;-53
2022/12/15 12:33:29;;;;;;;4.90;2.60;;;26.10;92.10;;;;;;5085900;28;20035;-52
2022/12/15 12:36:16;;;;;;;6.82;2.67;;;26.10;92.10;;;;;;5078495;28;20389;-52
2022/12/15 12:38:49;;;;;;;5.72;2.50;;;26.20;92.10;;;;;;5041707;28;20024;-53
2022/12/15 12:41:43;;;;;;;7.63;2.33;;;26.10;92.10;;;;;;5086359;28;20088;-57
2022/12/15 12:44:15;;;;;;;4.47;2.47;;;26.20;92.10;;;;;;5086761;28;20198;-53
2022/12/15 12:46:48;;;;;;;4.68;2.30;;;26.10;92.10;;;;;;5086174;28;20055;-52
2022/12/15 12:49:38;;;;;;;4.80;2.30;;;26.20;92.30;;;;;;5086566;28;20028;-53
2022/12/15 12:52:15;;;;;;;4.07;2.03;;;26.20;92.30;;;;;;5086405;28;20043;-53
2022/12/15 12:54:50;;;;;;;5.25;2.22;;;26.20;92.30;;;;;;5086636;28;20074;-55
2022/12/15 12:57:29;;;;;;;3.00;2.10;;;26.30;92.40;;;;;;5056275;28;20030;-53
2022/12/15 13:00:01;;;;;;;5.65;2.30;;;26.30;92.30;;;;;;5040528;28;20020;-51
2022/12/15 13:02:53;;;;;;;3.75;1.67;;;26.30;92.30;;;;;;5052277;28;20029;-52
2022/12/15 13:05:22;;;;;;;4.63;2.00;;;26.30;92.30;;;;;;4978640;28;20102;-54
2022/12/15 13:08:17;;;;;;;3.28;1.83;;;26.40;92.30;;;;;;4968998;28;20307;-53
2022/12/15 13:10:48;;;;;;;2.85;2.00;;;26.40;92.30;;;;;;4964485;29;20035;-54
2022/12/15 13:13:32;;;;;;;2.88;1.75;;;26.40;92.30;;;;;;4963539;29;20050;-54
2022/12/15 13:16:09;;;;;;;4.90;1.90;;;26.40;92.30;;;;;;4966162;28;20042;-58
2022/12/15 13:19:08;;;;;;;2.72;1.73;;;26.50;92.40;;;;;;4974121;28;20203;-54
2022/12/15 13:21:41;;;;;;;3.83;1.70;;;26.50;92.50;;;;;;4960229;28;20361;-58
2022/12/15 13:24:33;;;;;;;3.15;1.70;;;26.50;92.40;;;;;;5026154;28;20066;-52
2022/12/15 13:27:11;;;;;;;3.88;1.60;;;26.50;92.40;;;;;;4983644;28;20085;-55
2022/12/15 13:30:06;;;;;;;3.15;1.60;;;26.50;92.40;;;;;;4983577;28;20022;-53
2022/12/15 13:32:36;;;;;;;4.97;2.10;;;26.50;92.50;;;;;;4983583;28;20045;-54
2022/12/15 13:35:11;;;;;;;4.65;1.85;;;26.50;92.50;;;;;;4983476;28;20030;-55
2022/12/15 13:37:49;;;;;;;2.65;1.73;;;26.50;92.60;;;;;;5001443;28;20054;-53
2022/12/15 13:40:36;;;;;;;4.60;2.08;;;26.60;92.60;;;;;;5040221;28;20239;-53
2022/12/15 13:43:03;;;;;;;2.67;1.70;;;26.60;92.60;;;;;;5075366;28;20032;-60
2022/12/15 13:45:55;;;;;;;3.20;1.60;;;26.60;92.60;;;;;;5084896;28;20033;-53
2022/12/15 13:48:46;;;;;;;3.38;1.75;;;26.60;92.70;;;;;;5085586;28;20313;-53
2022/12/15 13:51:34;;;;;;;2.55;1.80;;;26.60;92.70;;;;;;5085255;28;20028;-54
2022/12/15 13:54:23;;;;;;;1.90;1.40;;;26.60;92.80;;;;;;5085517;28;20071;-55
2022/12/15 13:57:09;;;;;;;2.38;1.50;;;26.60;92.80;;;;;;4979827;28;20035;-58
2022/12/15 13:59:56;;;;;;;1.75;1.55;;;26.60;92.80;;;;;;4964765;28;20041;-53
2022/12/15 14:02:27;;;;;;;2.55;1.52;;;26.70;92.80;;;;;;4963858;28;20035;-52
2022/12/15 14:05:20;;;;;;;3.60;1.55;;;26.70;92.80;;;;;;4994096;28;20043;-52
2022/12/15 14:11:22;;;;;;;1.95;1.58;;;26.70;92.90;;;;;;5011159;28;20047;-53
2022/12/15 14:13:49;;;;;;;2.40;1.70;;;26.70;92.90;;;;;;5053223;28;20021;-52
2022/12/15 14:16:16;;;;;;;2.45;1.77;;;26.80;92.90;;;;;;5084701;28;20036;-52
2022/12/15 14:18:43;;;;;;;2.30;1.70;;;26.80;92.80;;;;;;5085207;28;20209;-53
2022/12/15 14:21:22;;;;;;;3.33;1.60;;;26.80;92.90;;;;;;5031224;28;20073;-55
2022/12/15 14:23:49;;;;;;;4.97;1.90;;;26.80;92.90;;;;;;4963763;29;20247;-55
2022/12/15 14:26:16;;;;;;;4.82;1.70;;;26.80;92.80;;;;;;4962335;29;20035;-56
2022/12/15 14:28:45;;;;;;;1.98;1.60;;;26.80;92.80;;;;;;4963231;29;20023;-51
2022/12/15 14:31:15;;;;;;;2.78;1.33;;;26.80;92.80;;;;;;4972097;28;20084;-55
2022/12/15 14:33:45;;;;;;;2.95;1.73;;;26.80;92.80;;;;;;5052691;28;20024;-55
2022/12/15 14:36:15;;;;;;;3.35;1.73;;;26.80;92.80;;;;;;5038943;28;20028;-55
2022/12/15 14:38:56;;;;;;;3.35;1.60;;;26.90;92.70;;;;;;5084438;28;20201;-55
2022/12/15 14:41:34;;;;;;;3.55;1.60;;;26.90;92.50;;;;;;5084106;28;20056;-52
2022/12/15 14:44:14;;;;;;;3.38;1.58;;;26.90;92.40;;;;;;5084541;28;20028;-53
2022/12/15 14:46:47;;;;;;;2.63;1.90;;;26.90;92.30;;;;;;5083912;28;20048;-54
2022/12/15 14:49:21;;;;;;;3.60;1.73;;;27.00;92.30;;;;;;5084873;28;20208;-53
2022/12/15 14:51:56;;;;;;;2.58;1.98;;;27.00;92.20;;;;;;5083923;28;20036;-54
2022/12/15 14:54:49;;;;;;;3.25;1.80;;;27.00;92.20;;;;;;5084518;28;20021;-51
2022/12/15 14:57:43;;;;;;;2.72;1.90;;;27.00;91.90;;;;;;5011994;28;20049;-52
2022/12/15 15:00:47;;;;;;;3.00;2.05;;;27.10;91.90;;;;;;4979039;28;20322;-52
2022/12/15 15:03:14;;;;;;;3.03;2.22;;;27.10;91.80;;;;;;4981483;28;20038;-53
2022/12/15 15:05:43;;;;;;;3.60;2.60;;;27.20;91.80;;;;;;5010763;28;20031;-56
2022/12/15 15:08:27;;;;;;;2.58;2.25;;;27.20;91.50;;;;;;4981185;28;20031;-51
2022/12/15 15:10:58;;;;;;;4.05;2.85;;;27.20;91.50;;;;;;4999593;28;20033;-51
2022/12/15 15:13:34;;;;;;;3.05;2.50;;;27.30;91.30;;;;;;4966124;28;20027;-53
2022/12/15 15:16:05;;;;;;;5.95;2.80;;;27.30;91.10;;;;;;4964928;28;20047;-51
2022/12/15 15:18:32;;;;;;;3.50;2.70;;;27.30;91.00;;;;;;4982355;28;20030;-53
2022/12/15 15:21:02;;;;;;;3.22;2.50;;;27.30;90.90;;;;;;4982083;28;20027;-53
2022/12/15 15:23:30;;;;;;;4.45;2.85;;;27.40;90.90;;;;;;4978788;28;20031;-54
2022/12/15 15:26:04;;;;;;;3.42;2.63;;;27.40;90.80;;;;;;4969866;28;20031;-54
2022/12/15 15:28:43;;;;;;;3.15;2.63;;;27.40;90.70;;;;;;4976072;28;20042;-55
2022/12/15 15:31:40;;;;;;;3.83;2.33;;;27.40;90.60;;;;;;4976698;28;20035;-54
2022/12/15 15:34:06;;;;;;;5.88;2.92;;;27.50;90.40;;;;;;4969368;28;20034;-52
2022/12/15 15:36:37;;;;;;;4.45;2.35;;;27.50;90.40;;;;;;4981071;28;20057;-53
2022/12/15 15:39:14;;;;;;;4.47;2.77;;;27.50;90.40;;;;;;4981132;28;20027;-54
2022/12/15 15:41:41;;;;;;;3.33;2.60;;;27.50;90.40;;;;;;5001897;28;20027;-51
2022/12/15 15:44:15;;;;;;;4.70;2.97;;;27.50;90.40;;;;;;4988910;28;20046;-59
2022/12/15 15:46:51;;;;;;;4.13;2.92;;;27.50;90.40;;;;;;4981063;28;20059;-49